Time;durP1;ratioP1;P1;durP2;ratioP2;P2;SDS_P1;SDS_P2;PMS_P1;PMS_P2;Temp;Humidity;BMP_temperature;BMP_pressure;BME280_temperature;BME280_humidity;BME280_pressure;Samples;Min_cycle;Max_cycle;Signal;HPM_P1;HPM_P2
2022/02/19 00:00:24;;;;;;;0.93;0.75;;;19.90;99.90;;;;;;5014517;28;20068;-61
2022/02/19 00:02:52;;;;;;;0.30;0.30;;;19.90;99.90;;;;;;5017603;28;20065;-61
2022/02/19 00:05:20;;;;;;;0.30;0.30;;;19.90;99.90;;;;;;5017198;28;20050;-60
2022/02/19 00:07:48;;;;;;;1.23;0.93;;;19.90;99.90;;;;;;5022022;28;20050;-60
2022/02/19 00:10:15;;;;;;;0.40;0.40;;;19.90;99.90;;;;;;5022043;28;20042;-60
2022/02/19 00:12:42;;;;;;;0.30;0.30;;;19.90;99.90;;;;;;5035654;28;20041;-62
2022/02/19 00:15:10;;;;;;;0.30;0.30;;;19.90;99.90;;;;;;5002039;28;20053;-62
2022/02/19 00:17:37;;;;;;;0.30;0.30;;;19.90;99.90;;;;;;5018240;28;20474;-59
2022/02/19 00:20:07;;;;;;;0.98;0.93;;;19.80;99.90;;;;;;5000431;28;20060;-61
2022/02/19 00:22:37;;;;;;;0.30;0.30;;;19.80;99.90;;;;;;5017442;28;20057;-62
2022/02/19 00:25:06;;;;;;;0.77;0.77;;;19.80;99.90;;;;;;5020340;28;20104;-62
2022/02/19 00:27:33;;;;;;;0.30;0.30;;;19.80;99.90;;;;;;5017341;28;20404;-60
2022/02/19 00:30:03;;;;;;;0.63;0.63;;;19.80;99.90;;;;;;4998416;28;20068;-60
2022/02/19 00:32:31;;;;;;;0.50;0.50;;;19.80;99.90;;;;;;5013571;28;20489;-60
2022/02/19 00:34:59;;;;;;;;;;;19.80;99.90;;;;;;5017469;28;20049;-59
2022/02/19 00:37:26;;;;;;;0.35;0.35;;;19.80;99.90;;;;;;5022172;28;20277;-59
2022/02/19 00:39:53;;;;;;;0.55;0.55;;;19.80;99.90;;;;;;4999885;28;20418;-58
2022/02/19 00:42:21;;;;;;;0.30;0.30;;;19.80;99.90;;;;;;5008948;28;20325;-60
2022/02/19 00:44:49;;;;;;;0.30;0.30;;;19.70;99.90;;;;;;5020805;28;20509;-60
2022/02/19 00:47:17;;;;;;;0.30;0.30;;;19.70;99.90;;;;;;5023351;28;20045;-60
2022/02/19 00:49:47;;;;;;;0.30;0.30;;;19.70;99.90;;;;;;5009781;28;20053;-58
2022/02/19 00:52:14;;;;;;;1.05;1.02;;;19.70;99.90;;;;;;5020962;28;20421;-61
2022/02/19 00:54:43;;;;;;;0.40;0.40;;;19.70;99.90;;;;;;5016631;28;20517;-59
2022/02/19 00:57:14;;;;;;;0.40;0.40;;;19.60;99.90;;;;;;5001077;28;20064;-59
2022/02/19 00:59:41;;;;;;;0.30;0.30;;;19.60;99.90;;;;;;4999772;28;20079;-59
2022/02/19 01:02:10;;;;;;;0.52;0.52;;;19.60;99.90;;;;;;5003061;28;20053;-59
2022/02/19 01:05:08;;;;;;;0.30;0.30;;;19.60;99.90;;;;;;5005569;28;20064;-56
2022/02/19 01:07:35;;;;;;;0.40;0.40;;;19.60;99.90;;;;;;5021868;28;20045;-60
2022/02/19 01:10:07;;;;;;;0.30;0.30;;;19.60;99.90;;;;;;5023142;28;20037;-60
2022/02/19 01:12:36;;;;;;;0.45;0.40;;;19.50;99.90;;;;;;5005328;28;20052;-58
2022/02/19 01:15:11;;;;;;;0.30;0.30;;;19.60;99.90;;;;;;5019509;28;20540;-57
2022/02/19 01:17:39;;;;;;;0.30;0.30;;;19.60;99.90;;;;;;5004063;28;20057;-60
2022/02/19 01:20:08;;;;;;;0.60;0.60;;;19.60;99.90;;;;;;4997709;28;20058;-58
2022/02/19 01:22:39;;;;;;;0.40;0.40;;;19.60;99.90;;;;;;5014587;28;20068;-61
2022/02/19 01:25:06;;;;;;;1.25;0.95;;;19.60;99.90;;;;;;5022785;28;20053;-60
2022/02/19 01:27:34;;;;;;;;;;;19.70;99.90;;;;;;5006398;28;20045;-58
2022/02/19 01:30:01;;;;;;;0.30;0.30;;;19.60;99.90;;;;;;4999292;28;19951;-63
2022/02/19 01:32:29;;;;;;;3.22;1.70;;;19.60;99.90;;;;;;5002119;28;20053;-61
2022/02/19 01:34:56;;;;;;;0.30;0.30;;;19.60;99.90;;;;;;4989421;28;20071;-60
2022/02/19 01:37:23;;;;;;;0.30;0.30;;;19.60;99.90;;;;;;5016512;28;20058;-60
2022/02/19 01:39:53;;;;;;;0.40;0.40;;;19.60;99.90;;;;;;5018308;28;20045;-59
2022/02/19 01:42:20;;;;;;;0.35;0.35;;;19.60;99.90;;;;;;5014999;28;20062;-59
2022/02/19 01:44:51;;;;;;;1.05;0.88;;;19.60;99.90;;;;;;5019964;28;20052;-61
2022/02/19 01:47:19;;;;;;;0.30;0.30;;;19.50;99.90;;;;;;5032579;28;20072;-59
2022/02/19 01:49:47;;;;;;;0.73;0.63;;;19.50;99.90;;;;;;5038580;28;20049;-58
2022/02/19 01:52:17;;;;;;;0.30;0.30;;;19.50;99.90;;;;;;5034582;28;20062;-60
2022/02/19 01:54:47;;;;;;;0.30;0.30;;;19.40;99.90;;;;;;5011672;28;20049;-60
2022/02/19 01:57:36;;;;;;;0.50;0.50;;;19.40;99.90;;;;;;4989171;28;20062;-60
2022/02/19 02:00:24;;;;;;;1.60;1.50;;;19.40;99.90;;;;;;4946096;28;20066;-59
2022/02/19 02:03:12;;;;;;;;;;;19.40;99.90;;;;;;4982774;28;20047;-58
2022/02/19 02:05:46;;;;;;;0.52;0.50;;;19.40;99.90;;;;;;4980988;28;20511;-60
2022/02/19 02:08:15;;;;;;;0.30;0.30;;;19.40;99.90;;;;;;4972744;28;20078;-59
2022/02/19 02:10:47;;;;;;;0.65;0.65;;;19.30;99.90;;;;;;4984050;28;20051;-57
2022/02/19 02:13:31;;;;;;;0.30;0.30;;;19.40;99.90;;;;;;4981406;28;20055;-58
2022/02/19 02:15:58;;;;;;;;;;;19.30;99.90;;;;;;5014233;28;20054;-58
2022/02/19 02:18:45;;;;;;;2.65;1.40;;;19.30;99.90;;;;;;4986209;28;19926;-60
2022/02/19 02:21:13;;;;;;;3.83;1.02;;;19.30;99.90;;;;;;4978595;28;20046;-61
2022/02/19 02:23:40;;;;;;;0.50;0.50;;;19.30;99.90;;;;;;4985402;28;20061;-61
2022/02/19 02:26:09;;;;;;;0.60;0.60;;;19.30;99.90;;;;;;4984337;28;20050;-61
2022/02/19 02:28:36;;;;;;;;;;;19.30;99.90;;;;;;4988496;28;20053;-61
2022/02/19 02:31:05;;;;;;;0.40;0.40;;;19.30;99.90;;;;;;4985364;28;19930;-59
2022/02/19 02:33:33;;;;;;;0.50;0.50;;;19.20;99.90;;;;;;4992898;28;20046;-59
2022/02/19 02:36:10;;;;;;;;;;;19.30;99.90;;;;;;4987444;28;20058;-60
2022/02/19 02:38:53;;;;;;;0.47;0.45;;;19.30;99.90;;;;;;4977757;28;20413;-62
2022/02/19 02:41:23;;;;;;;0.35;0.35;;;19.30;99.90;;;;;;4981230;28;20058;-60
2022/02/19 02:43:52;;;;;;;0.60;0.60;;;19.30;99.90;;;;;;4982871;28;20054;-59
2022/02/19 02:46:19;;;;;;;1.23;0.73;;;19.20;99.90;;;;;;4989421;28;20062;-60
2022/02/19 02:48:48;;;;;;;0.57;0.47;;;19.20;99.90;;;;;;5005741;28;20057;-59
2022/02/19 02:51:15;;;;;;;0.40;0.40;;;19.20;99.90;;;;;;4991545;28;20057;-61
2022/02/19 02:53:50;;;;;;;0.65;0.65;;;19.20;99.90;;;;;;4982767;28;20117;-58
2022/02/19 02:56:17;;;;;;;7.57;1.10;;;19.20;99.90;;;;;;4990746;28;20092;-60
2022/02/19 02:58:45;;;;;;;;;;;19.20;99.90;;;;;;5001110;28;20062;-60
2022/02/19 03:01:13;;;;;;;0.30;0.30;;;19.20;99.90;;;;;;5001168;28;19929;-61
2022/02/19 03:03:42;;;;;;;0.40;0.40;;;19.20;99.90;;;;;;5001403;28;20050;-60
2022/02/19 03:06:12;;;;;;;1.17;0.85;;;19.20;99.90;;;;;;5002008;28;20528;-58
2022/02/19 03:08:44;;;;;;;1.17;1.00;;;19.20;99.90;;;;;;4999798;28;20042;-61
2022/02/19 03:11:13;;;;;;;0.30;0.30;;;19.10;99.90;;;;;;4996296;28;20046;-59
2022/02/19 03:13:42;;;;;;;0.45;0.45;;;19.10;99.90;;;;;;4997250;28;20311;-61
2022/02/19 03:16:10;;;;;;;0.35;0.35;;;19.10;99.90;;;;;;5020290;28;20054;-61
2022/02/19 03:18:38;;;;;;;0.30;0.30;;;19.10;99.90;;;;;;5002822;28;20061;-58
2022/02/19 03:21:06;;;;;;;0.52;0.50;;;19.10;99.90;;;;;;5002901;28;20050;-61
2022/02/19 03:23:34;;;;;;;0.40;0.40;;;19.10;99.90;;;;;;5024982;28;20461;-60
2022/02/19 03:26:02;;;;;;;0.40;0.40;;;19.10;99.90;;;;;;5006454;28;20736;-60
2022/02/19 03:28:31;;;;;;;0.40;0.40;;;19.10;99.90;;;;;;5002034;28;20046;-61
2022/02/19 03:30:58;;;;;;;0.98;0.90;;;19.10;99.90;;;;;;5000831;28;20052;-59
2022/02/19 03:33:44;;;;;;;0.63;0.60;;;19.10;99.90;;;;;;5011303;28;20626;-63
2022/02/19 03:36:15;;;;;;;0.77;0.77;;;19.10;99.90;;;;;;5003606;28;20056;-60
2022/02/19 03:38:43;;;;;;;;;;;19.10;99.90;;;;;;5014915;28;20054;-57
2022/02/19 03:41:16;;;;;;;2.75;1.67;;;19.10;99.90;;;;;;4998534;28;19933;-61
2022/02/19 03:43:43;;;;;;;0.40;0.40;;;19.00;99.90;;;;;;4999379;28;20077;-60
2022/02/19 03:46:11;;;;;;;0.50;0.50;;;19.00;99.90;;;;;;5003866;28;20065;-62
2022/02/19 03:48:47;;;;;;;1.27;0.95;;;19.00;99.90;;;;;;5015632;28;20065;-60
2022/02/19 03:51:16;;;;;;;0.30;0.30;;;19.00;99.90;;;;;;5008585;28;20709;-61
2022/02/19 03:53:46;;;;;;;1.08;0.90;;;19.00;99.90;;;;;;5019097;28;20050;-59
2022/02/19 03:56:17;;;;;;;0.30;0.30;;;19.00;99.90;;;;;;4995342;28;20057;-61
2022/02/19 03:58:45;;;;;;;0.30;0.30;;;19.00;99.90;;;;;;5020071;28;20168;-59
2022/02/19 04:01:14;;;;;;;1.92;0.40;;;19.00;99.90;;;;;;5007152;28;20053;-58
2022/02/19 04:03:42;;;;;;;0.30;0.30;;;19.00;99.90;;;;;;5018368;28;20112;-59
2022/02/19 04:06:10;;;;;;;0.30;0.30;;;19.00;99.90;;;;;;5007685;28;20049;-59
2022/02/19 04:08:38;;;;;;;0.73;0.73;;;19.00;99.90;;;;;;5023342;28;20060;-57
2022/02/19 04:11:05;;;;;;;0.50;0.50;;;19.00;99.90;;;;;;5009064;28;20448;-61
2022/02/19 04:13:34;;;;;;;0.30;0.30;;;19.00;99.90;;;;;;5004822;28;20050;-60
2022/02/19 04:16:09;;;;;;;0.30;0.30;;;19.00;99.90;;;;;;5008250;28;20508;-58
2022/02/19 04:18:40;;;;;;;0.30;0.30;;;19.00;99.90;;;;;;5005455;28;20049;-61
2022/02/19 04:21:08;;;;;;;0.63;0.60;;;18.90;99.90;;;;;;5017448;28;20061;-61
2022/02/19 04:23:37;;;;;;;0.30;0.30;;;18.90;99.90;;;;;;5009163;28;20057;-60
2022/02/19 04:26:08;;;;;;;0.50;0.50;;;18.90;99.90;;;;;;5020104;28;20050;-58
2022/02/19 04:28:50;;;;;;;0.40;0.40;;;18.90;99.90;;;;;;5003417;28;20045;-58
2022/02/19 04:31:24;;;;;;;0.40;0.40;;;18.90;99.90;;;;;;5022106;28;20045;-59
2022/02/19 04:34:01;;;;;;;0.30;0.30;;;19.00;99.90;;;;;;5001804;28;20046;-61
2022/02/19 04:36:29;;;;;;;0.50;0.50;;;18.90;99.90;;;;;;5007763;28;20521;-60
2022/02/19 04:38:57;;;;;;;1.92;1.83;;;18.90;99.90;;;;;;4998051;28;20311;-60
2022/02/19 04:41:27;;;;;;;0.30;0.30;;;18.90;99.90;;;;;;5004851;28;20527;-62
2022/02/19 04:43:56;;;;;;;1.42;1.33;;;18.90;99.90;;;;;;4995227;28;20045;-59
2022/02/19 04:46:24;;;;;;;0.30;0.30;;;18.80;99.90;;;;;;4996519;28;20053;-60
2022/02/19 04:48:55;;;;;;;0.30;0.30;;;18.90;99.90;;;;;;4997607;28;20057;-60
2022/02/19 04:51:24;;;;;;;0.30;0.30;;;18.80;99.90;;;;;;5003819;28;20049;-59
2022/02/19 04:53:53;;;;;;;0.30;0.30;;;18.90;99.90;;;;;;4999462;28;21058;-59
2022/02/19 04:56:21;;;;;;;0.30;0.30;;;19.00;99.90;;;;;;5018069;28;20105;-59
2022/02/19 04:58:50;;;;;;;0.30;0.30;;;19.10;99.90;;;;;;5000880;28;20053;-59
2022/02/19 05:01:18;;;;;;;0.50;0.50;;;19.30;99.90;;;;;;5017303;28;20517;-59
2022/02/19 05:04:02;;;;;;;0.30;0.30;;;19.40;99.90;;;;;;5020534;28;20053;-59
2022/02/19 05:06:42;;;;;;;1.58;0.57;;;19.50;99.90;;;;;;5000943;28;20065;-61
2022/02/19 05:09:11;;;;;;;0.38;0.38;;;19.60;99.90;;;;;;4997613;28;20572;-60
2022/02/19 05:11:45;;;;;;;0.75;0.70;;;19.80;99.90;;;;;;5001545;28;20064;-61
2022/02/19 05:14:13;;;;;;;0.30;0.30;;;19.90;99.90;;;;;;5005456;28;20052;-60
2022/02/19 05:16:43;;;;;;;0.30;0.30;;;20.00;99.90;;;;;;5004474;28;20069;-59
2022/02/19 05:19:12;;;;;;;0.25;0.25;;;20.20;99.90;;;;;;4998863;28;20049;-58
2022/02/19 05:21:42;;;;;;;0.20;0.20;;;20.30;99.90;;;;;;5000805;28;20050;-63
2022/02/19 05:24:13;;;;;;;0.40;0.40;;;20.40;99.90;;;;;;5028390;28;20045;-61
2022/02/19 05:26:47;;;;;;;0.30;0.30;;;20.60;99.90;;;;;;5019251;28;20037;-61
2022/02/19 05:29:18;;;;;;;0.30;0.30;;;20.70;99.90;;;;;;5001053;28;20045;-60
2022/02/19 05:31:47;;;;;;;0.32;0.32;;;20.90;99.90;;;;;;5004160;28;20049;-61
2022/02/19 05:34:30;;;;;;;0.30;0.30;;;21.00;99.90;;;;;;5014657;28;21885;-60
2022/02/19 05:37:02;;;;;;;0.68;0.40;;;21.30;99.90;;;;;;4999856;28;20053;-65
2022/02/19 05:39:32;;;;;;;0.30;0.30;;;21.40;99.90;;;;;;5002871;28;20053;-64
2022/02/19 05:42:00;;;;;;;0.30;0.30;;;21.70;99.90;;;;;;5001599;28;20058;-65
2022/02/19 05:44:32;;;;;;;0.50;0.45;;;21.90;99.90;;;;;;5001193;28;20057;-63
2022/02/19 05:47:05;;;;;;;1.48;1.38;;;22.00;99.90;;;;;;4999897;28;20084;-64
2022/02/19 05:49:36;;;;;;;0.40;0.40;;;22.10;99.90;;;;;;4999111;28;20049;-64
2022/02/19 05:52:18;;;;;;;0.30;0.30;;;22.20;99.90;;;;;;5003074;28;20064;-60
2022/02/19 05:54:59;;;;;;;13.77;1.30;;;22.30;99.90;;;;;;5001227;28;20064;-62
2022/02/19 05:57:29;;;;;;;0.30;0.30;;;22.30;99.90;;;;;;5018720;28;20057;-61
2022/02/19 05:59:58;;;;;;;0.45;0.45;;;22.30;99.90;;;;;;4996897;28;20420;-62
2022/02/19 06:02:25;;;;;;;0.52;0.43;;;22.30;99.90;;;;;;5022052;28;20049;-61
2022/02/19 06:04:52;;;;;;;0.70;0.57;;;22.20;99.80;;;;;;5017882;28;20409;-60
2022/02/19 06:07:19;;;;;;;0.60;0.60;;;21.90;99.90;;;;;;5008892;28;20057;-58
2022/02/19 06:09:47;;;;;;;3.60;2.00;;;21.70;99.80;;;;;;5007578;28;20110;-60
2022/02/19 06:12:14;;;;;;;2.90;0.55;;;21.60;99.00;;;;;;5000783;28;20608;-59
2022/02/19 06:14:51;;;;;;;0.30;0.30;;;21.50;98.30;;;;;;5001179;28;20046;-61
2022/02/19 06:17:23;;;;;;;0.73;0.73;;;21.40;98.40;;;;;;5005027;28;20056;-62
2022/02/19 06:19:51;;;;;;;2.10;1.23;;;21.40;98.20;;;;;;4995412;28;20042;-59
2022/02/19 06:22:19;;;;;;;0.30;0.30;;;21.40;98.40;;;;;;5016230;28;20056;-59
2022/02/19 06:24:50;;;;;;;2.50;1.33;;;21.40;98.10;;;;;;5005464;28;20057;-61
2022/02/19 06:27:19;;;;;;;0.90;0.65;;;21.40;98.00;;;;;;5020094;28;20049;-61
2022/02/19 06:29:53;;;;;;;0.30;0.30;;;21.40;97.40;;;;;;5004360;28;20053;-60
2022/02/19 06:32:27;;;;;;;1.05;0.85;;;21.30;97.00;;;;;;5006491;28;20056;-56
2022/02/19 06:35:00;;;;;;;0.30;0.30;;;21.30;97.10;;;;;;5003374;28;20045;-59
2022/02/19 06:37:29;;;;;;;0.82;0.60;;;21.30;97.00;;;;;;5005515;28;20049;-60
2022/02/19 06:39:57;;;;;;;;;;;21.30;96.60;;;;;;5008497;28;20049;-60
2022/02/19 06:42:30;;;;;;;0.63;0.63;;;21.40;96.70;;;;;;5004004;28;19925;-59
2022/02/19 06:45:07;;;;;;;0.40;0.40;;;21.40;96.70;;;;;;5036125;28;20053;-59
2022/02/19 06:47:36;;;;;;;0.55;0.55;;;21.40;96.90;;;;;;5022714;28;20060;-60
2022/02/19 06:50:08;;;;;;;0.55;0.55;;;21.50;96.90;;;;;;5013467;28;20053;-61
2022/02/19 06:52:38;;;;;;;0.30;0.30;;;21.50;97.00;;;;;;5035275;28;20054;-59
2022/02/19 06:55:07;;;;;;;0.82;0.75;;;21.50;97.00;;;;;;5011688;28;20053;-58
2022/02/19 06:57:36;;;;;;;0.30;0.30;;;21.50;97.20;;;;;;5017744;28;20054;-59
2022/02/19 07:00:06;;;;;;;0.47;0.45;;;21.50;97.30;;;;;;5002687;28;20053;-58
2022/02/19 07:02:37;;;;;;;2.50;1.60;;;21.50;97.30;;;;;;5007513;28;20086;-57
2022/02/19 07:05:05;;;;;;;2.33;1.38;;;21.60;97.50;;;;;;5004418;28;20046;-59
2022/02/19 07:07:56;;;;;;;0.30;0.30;;;21.60;97.40;;;;;;4991579;28;20722;-57
2022/02/19 07:10:24;;;;;;;0.30;0.30;;;21.60;97.40;;;;;;5006657;28;20362;-56
2022/02/19 07:12:52;;;;;;;0.63;0.63;;;21.60;97.50;;;;;;4998753;28;20046;-56
2022/02/19 07:15:20;;;;;;;2.90;1.45;;;21.60;97.60;;;;;;5021399;28;20070;-59
2022/02/19 07:18:14;;;;;;;0.32;0.32;;;21.60;97.60;;;;;;4995403;28;20085;-59
2022/02/19 07:20:52;;;;;;;0.38;0.38;;;21.60;97.80;;;;;;5005965;28;20049;-61
2022/02/19 07:23:21;;;;;;;3.22;1.38;;;21.50;97.80;;;;;;5005144;28;20057;-64
2022/02/19 07:25:48;;;;;;;0.30;0.30;;;21.50;98.00;;;;;;5003963;28;20054;-59
2022/02/19 07:28:16;;;;;;;1.25;0.80;;;21.50;98.10;;;;;;5000715;28;20321;-59
2022/02/19 07:30:43;;;;;;;0.63;0.63;;;21.50;98.10;;;;;;5000558;28;21547;-58
2022/02/19 07:33:13;;;;;;;0.50;0.50;;;21.50;98.20;;;;;;5003975;28;20054;-58
2022/02/19 07:35:54;;;;;;;0.40;0.40;;;21.40;98.30;;;;;;5020201;28;20038;-56
2022/02/19 07:38:25;;;;;;;0.30;0.30;;;21.40;98.30;;;;;;5021781;28;20046;-56
2022/02/19 07:40:53;;;;;;;0.57;0.57;;;21.40;98.30;;;;;;5005772;28;20513;-58
2022/02/19 07:43:29;;;;;;;2.33;1.75;;;21.30;98.40;;;;;;5006228;28;20050;-59
2022/02/19 07:46:20;;;;;;;0.35;0.35;;;21.30;98.40;;;;;;5002543;28;20062;-57
2022/02/19 08:00:40;;;;;;;0.77;0.77;;;21.00;98.80;;;;;;4999145;28;20061;-59
2022/02/19 08:03:09;;;;;;;3.63;1.52;;;21.00;98.90;;;;;;5008149;28;20054;-62
2022/02/19 08:05:36;;;;;;;0.38;0.38;;;21.10;99.10;;;;;;5009586;28;20054;-62
2022/02/19 08:08:04;;;;;;;0.52;0.52;;;21.20;99.20;;;;;;5000438;28;20058;-59
2022/02/19 08:10:32;;;;;;;0.70;0.50;;;21.20;99.10;;;;;;5000781;28;20381;-64
2022/02/19 08:13:09;;;;;;;0.88;0.82;;;21.30;99.00;;;;;;4992739;28;20050;-63
2022/02/19 08:15:37;;;;;;;;;;;21.50;99.10;;;;;;4998324;28;20671;-63
2022/02/19 08:18:06;;;;;;;1.80;1.20;;;21.60;98.90;;;;;;4992847;28;19936;-65
2022/02/19 08:20:35;;;;;;;1.35;1.20;;;21.70;98.90;;;;;;4996035;28;20064;-67
2022/02/19 08:23:05;;;;;;;0.55;0.55;;;21.80;98.90;;;;;;4998740;28;20061;-66
2022/02/19 08:25:34;;;;;;;0.75;0.68;;;21.80;99.00;;;;;;5000802;28;20042;-67
2022/02/19 08:28:05;;;;;;;0.50;0.50;;;21.90;99.30;;;;;;5008005;28;20054;-64
2022/02/19 08:30:37;;;;;;;0.45;0.45;;;21.80;97.80;;;;;;5005560;28;20042;-69
2022/02/19 08:33:05;;;;;;;0.55;0.55;;;21.70;96.20;;;;;;4999582;28;20076;-64
2022/02/19 08:35:33;;;;;;;0.60;0.60;;;21.60;95.50;;;;;;4999070;28;20092;-66
2022/02/19 08:38:01;;;;;;;1.05;0.68;;;21.70;95.80;;;;;;4999909;28;20045;-67
2022/02/19 08:40:28;;;;;;;0.30;0.30;;;21.70;96.40;;;;;;4999744;28;20051;-65
2022/02/19 08:42:56;;;;;;;0.82;0.45;;;21.70;96.60;;;;;;4997320;28;20698;-65
2022/02/19 08:45:23;;;;;;;0.30;0.30;;;21.80;97.10;;;;;;4996503;28;20050;-64
2022/02/19 08:47:53;;;;;;;0.30;0.30;;;21.80;97.40;;;;;;5001426;28;20046;-64
2022/02/19 08:50:21;;;;;;;2.55;1.48;;;21.80;97.80;;;;;;4996788;28;20050;-62
2022/02/19 08:52:49;;;;;;;12.68;1.60;;;21.80;97.90;;;;;;4994272;28;20045;-59
2022/02/19 08:55:16;;;;;;;0.20;0.20;;;21.80;98.10;;;;;;4993624;28;20072;-61
2022/02/19 08:57:47;;;;;;;0.30;0.30;;;21.80;98.40;;;;;;5011675;28;20057;-60
2022/02/19 09:00:15;;;;;;;0.47;0.47;;;21.80;98.60;;;;;;5018586;28;20408;-60
2022/02/19 09:02:42;;;;;;;;;;;21.70;99.00;;;;;;5019812;28;20045;-61
2022/02/19 09:05:12;;;;;;;0.50;0.50;;;21.70;99.10;;;;;;5019196;28;19929;-62
2022/02/19 09:07:40;;;;;;;1.08;0.77;;;21.70;99.30;;;;;;5017236;28;20071;-60
2022/02/19 09:10:09;;;;;;;0.35;0.35;;;21.60;99.30;;;;;;5013801;28;20057;-64
2022/02/19 09:12:43;;;;;;;1.10;0.80;;;21.60;99.50;;;;;;5013969;28;20049;-60
2022/02/19 09:15:10;;;;;;;0.30;0.30;;;21.50;99.70;;;;;;5015862;28;20160;-64
2022/02/19 09:17:38;;;;;;;0.38;0.38;;;21.50;99.90;;;;;;5015170;28;20048;-59
2022/02/19 09:20:08;;;;;;;1.27;0.98;;;21.40;99.90;;;;;;5015190;28;20788;-59
2022/02/19 09:22:35;;;;;;;1.20;0.75;;;21.40;99.90;;;;;;5010225;28;20049;-61
2022/02/19 09:25:04;;;;;;;;;;;21.40;99.90;;;;;;5017623;28;20052;-65
2022/02/19 09:27:31;;;;;;;0.60;0.60;;;21.40;99.90;;;;;;5020558;28;20355;-67
2022/02/19 09:29:59;;;;;;;0.30;0.30;;;21.40;99.90;;;;;;5012714;28;20045;-62
2022/02/19 09:32:26;;;;;;;0.82;0.82;;;21.40;99.90;;;;;;5017705;28;20489;-61
2022/02/19 09:34:54;;;;;;;0.50;0.50;;;21.40;99.90;;;;;;5017425;28;20034;-68
2022/02/19 09:37:23;;;;;;;0.30;0.30;;;21.40;99.90;;;;;;5019985;28;20064;-60
2022/02/19 09:39:51;;;;;;;1.40;1.30;;;21.40;99.90;;;;;;5020047;28;20053;-62
2022/02/19 09:42:18;;;;;;;1.42;1.15;;;21.40;99.90;;;;;;5013902;28;20048;-61
2022/02/19 09:44:45;;;;;;;0.40;0.40;;;21.40;99.90;;;;;;5017163;28;20057;-61
2022/02/19 09:47:17;;;;;;;0.30;0.30;;;21.40;99.90;;;;;;5014871;28;20053;-60
2022/02/19 09:49:44;;;;;;;0.30;0.30;;;21.50;99.90;;;;;;5018756;28;20050;-58
2022/02/19 09:52:11;;;;;;;5.85;1.33;;;21.50;99.90;;;;;;5015919;28;20544;-62
2022/02/19 09:54:39;;;;;;;0.28;0.28;;;21.60;99.90;;;;;;5019579;28;20060;-68
2022/02/19 09:57:06;;;;;;;8.98;1.65;;;21.70;99.90;;;;;;5018818;28;20048;-62
2022/02/19 09:59:34;;;;;;;0.80;0.73;;;21.90;99.90;;;;;;5022582;28;20049;-61
2022/02/19 10:02:06;;;;;;;0.20;0.20;;;21.90;99.90;;;;;;5017572;28;20053;-58
2022/02/19 10:04:34;;;;;;;0.30;0.30;;;22.00;99.90;;;;;;5018693;28;20045;-62
2022/02/19 10:07:18;;;;;;;1.80;1.65;;;22.10;99.90;;;;;;5014198;28;20065;-61
2022/02/19 10:09:47;;;;;;;0.52;0.52;;;22.10;99.90;;;;;;5012447;28;20049;-61
2022/02/19 10:12:16;;;;;;;0.28;0.28;;;22.10;99.90;;;;;;5014568;28;20046;-59
2022/02/19 10:14:44;;;;;;;0.30;0.30;;;22.10;99.90;;;;;;5014533;28;20045;-63
2022/02/19 10:17:20;;;;;;;1.40;1.10;;;22.10;99.90;;;;;;5014645;28;20573;-59
2022/02/19 10:19:59;;;;;;;0.30;0.30;;;22.10;99.90;;;;;;5017532;28;20081;-61
2022/02/19 10:22:29;;;;;;;0.47;0.47;;;22.10;99.90;;;;;;5015667;28;21427;-63
2022/02/19 10:25:00;;;;;;;0.88;0.88;;;22.00;99.90;;;;;;5008954;28;20049;-61
2022/02/19 10:27:45;;;;;;;0.93;0.82;;;21.90;99.90;;;;;;5013587;28;20050;-62
2022/02/19 10:30:16;;;;;;;1.23;1.00;;;21.80;99.90;;;;;;5017820;28;20048;-61
2022/02/19 10:32:52;;;;;;;0.40;0.40;;;21.70;99.90;;;;;;5024162;28;20045;-59
2022/02/19 10:35:30;;;;;;;0.30;0.30;;;21.80;99.90;;;;;;5021000;28;20045;-60
2022/02/19 10:38:05;;;;;;;0.63;0.63;;;21.80;99.90;;;;;;5019783;28;20033;-60
2022/02/19 10:40:48;;;;;;;0.95;0.95;;;21.70;99.90;;;;;;5020824;28;20041;-61
2022/02/19 10:43:20;;;;;;;1.23;1.13;;;21.70;99.90;;;;;;5017760;28;20067;-62
2022/02/19 10:45:55;;;;;;;0.40;0.40;;;21.60;99.90;;;;;;5028139;28;20517;-60
2022/02/19 10:48:25;;;;;;;2.30;1.27;;;21.60;99.90;;;;;;5027277;28;20049;-60
2022/02/19 10:51:08;;;;;;;0.32;0.32;;;21.60;99.90;;;;;;5021909;28;20045;-60
2022/02/19 10:53:36;;;;;;;0.30;0.30;;;21.50;99.90;;;;;;5025362;28;20053;-59
2022/02/19 10:56:17;;;;;;;0.60;0.60;;;21.50;99.90;;;;;;5019243;28;20044;-60
2022/02/19 10:59:02;;;;;;;0.30;0.30;;;21.40;99.90;;;;;;5018781;28;20064;-59
2022/02/19 11:01:50;;;;;;;0.30;0.30;;;21.40;99.90;;;;;;5023309;28;20052;-60
2022/02/19 11:04:21;;;;;;;0.90;0.68;;;21.30;99.90;;;;;;5023529;28;20060;-60
2022/02/19 11:06:50;;;;;;;0.50;0.50;;;21.30;99.90;;;;;;5023868;28;20041;-62
2022/02/19 11:09:17;;;;;;;0.40;0.40;;;21.20;99.90;;;;;;5024537;28;20053;-61
2022/02/19 11:11:46;;;;;;;0.32;0.32;;;21.20;99.90;;;;;;5017655;28;20045;-60
2022/02/19 11:14:15;;;;;;;0.30;0.30;;;21.20;99.90;;;;;;5026695;28;20060;-61
2022/02/19 11:16:43;;;;;;;0.30;0.30;;;21.10;99.90;;;;;;5021531;28;20052;-62
2022/02/19 11:19:15;;;;;;;0.50;0.50;;;21.10;99.90;;;;;;5025162;28;20037;-60
2022/02/19 11:21:43;;;;;;;0.30;0.30;;;21.10;99.90;;;;;;5024609;28;20045;-62
2022/02/19 11:24:11;;;;;;;1.65;1.45;;;21.20;99.90;;;;;;5020070;28;20580;-61
2022/02/19 11:26:38;;;;;;;0.45;0.45;;;21.20;99.90;;;;;;5000659;28;20065;-61
2022/02/19 11:29:11;;;;;;;0.70;0.70;;;21.30;99.90;;;;;;5021535;28;20057;-60
2022/02/19 11:31:42;;;;;;;0.40;0.40;;;21.40;99.90;;;;;;5009921;28;20045;-59
2022/02/19 11:34:11;;;;;;;2.53;1.95;;;21.50;99.90;;;;;;5021406;28;20049;-61
2022/02/19 11:36:38;;;;;;;0.30;0.30;;;21.50;99.90;;;;;;5023304;28;20045;-62
2022/02/19 11:39:06;;;;;;;0.30;0.30;;;21.60;99.90;;;;;;5014049;28;20038;-60
2022/02/19 11:41:43;;;;;;;0.30;0.30;;;21.70;99.90;;;;;;5018867;28;20034;-60
2022/02/19 11:44:19;;;;;;;0.30;0.30;;;21.80;99.90;;;;;;5021821;28;20041;-61
2022/02/19 11:46:48;;;;;;;3.40;1.40;;;21.80;99.90;;;;;;5015976;28;20072;-58
2022/02/19 11:49:20;;;;;;;0.30;0.30;;;21.80;99.90;;;;;;5035738;28;20052;-62
2022/02/19 11:52:12;;;;;;;0.20;0.20;;;21.80;99.90;;;;;;5041042;28;20055;-59
2022/02/19 11:55:32;;;;;;;0.30;0.30;;;21.80;99.90;;;;;;5032463;28;20532;-62
2022/02/19 11:58:04;;;;;;;0.25;0.25;;;21.80;99.90;;;;;;5024076;28;20049;-59
2022/02/19 12:00:48;;;;;;;0.40;0.40;;;21.80;99.90;;;;;;5017218;28;20046;-60
2022/02/19 12:03:34;;;;;;;1.13;0.45;;;21.80;99.90;;;;;;5019153;28;20416;-60
2022/02/19 12:06:18;;;;;;;1.15;1.05;;;21.70;99.90;;;;;;5026029;28;20497;-61
2022/02/19 12:08:46;;;;;;;1.35;1.02;;;21.70;99.90;;;;;;5015431;28;20058;-62
2022/02/19 12:11:24;;;;;;;0.30;0.30;;;21.70;99.90;;;;;;5023649;28;20484;-57
2022/02/19 12:13:53;;;;;;;0.75;0.52;;;21.70;99.90;;;;;;5022296;28;20053;-62
2022/02/19 12:16:34;;;;;;;9.18;1.85;;;21.60;99.90;;;;;;5004612;28;20402;-63
2022/02/19 12:19:04;;;;;;;0.50;0.50;;;21.60;99.90;;;;;;5022061;28;20141;-61
2022/02/19 12:21:39;;;;;;;0.30;0.30;;;21.60;99.90;;;;;;5017591;28;20057;-63
2022/02/19 12:24:19;;;;;;;0.60;0.60;;;21.60;99.90;;;;;;5020013;28;20049;-59
2022/02/19 12:27:04;;;;;;;0.40;0.40;;;21.50;99.90;;;;;;5022777;28;20046;-60
2022/02/19 12:29:41;;;;;;;0.40;0.40;;;21.50;99.90;;;;;;5021221;28;20049;-60
2022/02/19 12:32:22;;;;;;;0.32;0.32;;;21.40;99.90;;;;;;5013202;28;20045;-63
2022/02/19 12:34:52;;;;;;;0.88;0.88;;;21.40;99.90;;;;;;5018071;28;20046;-60
2022/02/19 12:37:20;;;;;;;0.40;0.40;;;21.40;99.90;;;;;;5017426;28;20046;-61
2022/02/19 12:39:51;;;;;;;0.45;0.45;;;21.40;99.90;;;;;;5026512;28;20393;-64
2022/02/19 12:42:20;;;;;;;0.30;0.30;;;21.30;99.90;;;;;;5021632;28;20054;-61
2022/02/19 12:44:58;;;;;;;0.30;0.30;;;21.30;99.90;;;;;;5010455;28;20068;-64
2022/02/19 12:47:26;;;;;;;0.30;0.30;;;21.20;99.90;;;;;;5021320;28;20065;-62
2022/02/19 12:49:53;;;;;;;0.30;0.30;;;21.20;99.90;;;;;;5017405;28;20290;-62
2022/02/19 12:52:22;;;;;;;1.23;0.77;;;21.20;99.90;;;;;;5018429;28;20049;-61
2022/02/19 12:54:50;;;;;;;0.30;0.30;;;21.20;99.90;;;;;;5025991;28;20056;-61
2022/02/19 12:57:21;;;;;;;;;;;21.20;99.90;;;;;;5010813;28;20056;-61
2022/02/19 12:59:53;;;;;;;1.20;0.50;;;21.30;99.90;;;;;;5024908;28;19948;-62
2022/02/19 13:02:23;;;;;;;0.30;0.30;;;21.30;99.90;;;;;;5013374;28;20064;-63
2022/02/19 13:04:59;;;;;;;0.47;0.45;;;21.40;99.90;;;;;;5013372;28;20426;-61
2022/02/19 13:07:28;;;;;;;0.47;0.47;;;21.50;99.90;;;;;;5010333;28;20580;-58
2022/02/19 13:09:58;;;;;;;0.30;0.30;;;21.60;99.90;;;;;;5024674;28;20054;-62
2022/02/19 13:12:31;;;;;;;0.50;0.50;;;21.60;99.90;;;;;;5016275;28;20042;-61
2022/02/19 13:15:01;;;;;;;0.35;0.35;;;21.80;99.90;;;;;;5026373;28;20041;-61
2022/02/19 13:17:32;;;;;;;0.50;0.50;;;21.80;99.90;;;;;;5020809;28;20152;-61
2022/02/19 13:20:07;;;;;;;1.55;0.95;;;21.80;99.90;;;;;;5017271;28;20037;-62
2022/02/19 13:22:37;;;;;;;0.30;0.30;;;21.80;99.90;;;;;;5021988;28;20527;-64